Terminal Aerodrome Forecast
Issued by NWS

Current Version | Previous Version | Text Only | Print | Product List | Glossary On
Versions: 1 2 3 4 5 6 7 8 9 10 11 12 13 14 15
122
FTUS43 KICT 231728 AAB
TAFSLN
TAF AMD
KSLN 231728Z 2317/2418 17026G34KT P6SM SCT020 BKN035
      TEMPO 2318/2321 BKN018
     FM241000 18021G29KT P6SM SCT035 BKN150=

USA.gov is the U.S. government's official web portal to all federal, state and local government web resources and services.